Vestaburg, Michigan
Current Conditions -  °F | °C
As of 9:53 PM on Sunday 23 Nov 2014 (Local Time) from KAMN Reporting Station
Moderate Rain Moderate Rain  
Wind Chill: 44°   Ceiling: 600
Heat Index: 48°   Visibility: 4mi
Dew Point: 47°   Wind: 8mph
Humidity: 98%   Direction: 100°E
Pressure: 29.35"   Gusts: NA
Location:  43.4°N, 84.91°W
Report Text: KAMN 240253Z AUTO 10007KT 4SM RA OVC006 09/08 A2935 RMK AO2 T00870084
Loading
Personal Weather Stations






























Interactive Weather Map New forecast layout! Learn more

10-Day Weather Forecast

Advertisements
Track Severe Weather on mobile